Weather reports worldwide

Advertisment
Levens Hall, United Kingdom (99172): temperature & dewpoint: 15.10.2017 06:00:00 - 21.10.2017 06:00:00 (BST)Levens Hall, United Kingdom (99172): precipitation: 15.10.2017 06:00:00 - 21.10.2017 06:00:00 (BST)
Date & Time tt [°C] td [°C] rr [mm]
21.10.2017 06:00:00 - - -
21.10.2017 05:00:00 - - -
21.10.2017 04:00:00 - - -
21.10.2017 03:00:00 - - -
21.10.2017 02:00:00 - - -
21.10.2017 01:00:00 - - -
21.10.2017 00:00:00 - - -
20.10.2017 23:00:00 - - -
20.10.2017 22:00:00 - - -
20.10.2017 21:00:00 - - 0,0
20.10.2017 20:00:00 10,3 8,5 0,0
20.10.2017 19:00:00 11,0 9,5 0,0
20.10.2017 18:00:00 11,8 9,1 0,2
20.10.2017 17:00:00 12,3 9,7 0,0
20.10.2017 16:00:00 12,7 9,9 0,0
20.10.2017 15:00:00 13,3 11,0 0,0
20.10.2017 14:00:00 14,2 11,5 0,0
20.10.2017 13:00:00 15,5 12,3 0,0
20.10.2017 12:00:00 14,6 12,8 0,0
20.10.2017 11:00:00 13,6 13,3 0,0
20.10.2017 10:00:00 13,0 12,8 0,0
20.10.2017 09:00:00 12,6 12,4 0,0
20.10.2017 08:00:00 12,4 12,2 1,4
20.10.2017 07:00:00 12,3 12,1 1,4
20.10.2017 06:00:00 12,3 11,9 0,0
20.10.2017 05:00:00 12,2 11,9 0,0
20.10.2017 04:00:00 12,3 11,9 0,4
20.10.2017 03:00:00 12,4 11,9 1,2
20.10.2017 02:00:00 12,7 12,1 1,0
20.10.2017 01:00:00 12,7 12,0 2,6
20.10.2017 00:00:00 12,4 11,7 1,0
19.10.2017 23:00:00 12,6 12,0 1,0
19.10.2017 22:00:00 12,6 12,1 0,0
19.10.2017 21:00:00 12,8 12,3 0,2
19.10.2017 20:00:00 12,6 12,0 1,4
19.10.2017 19:00:00 12,8 12,1 5,4
19.10.2017 18:00:00 13,1 12,2 5,0
19.10.2017 17:00:00 13,3 12,4 3,4
19.10.2017 16:00:00 13,6 11,8 0,4
19.10.2017 15:00:00 14,6 10,9 0,0
19.10.2017 14:00:00 15,2 11,4 0,0
19.10.2017 13:00:00 14,3 10,9 0,0
19.10.2017 12:00:00 14,1 11,5 0,0
19.10.2017 11:00:00 13,0 10,8 0,0
19.10.2017 10:00:00 12,0 10,4 0,0
19.10.2017 09:00:00 11,1 10,1 0,0
19.10.2017 08:00:00 10,1 9,1 0,0
19.10.2017 07:00:00 11,0 9,6 0,0
19.10.2017 06:00:00 11,2 9,7 0,0
19.10.2017 05:00:00 11,7 10,1 0,0
19.10.2017 04:00:00 12,0 10,3 0,0
19.10.2017 03:00:00 12,1 10,2 0,0
19.10.2017 02:00:00 12,1 9,9 0,0
19.10.2017 01:00:00 12,2 9,6 0,0
19.10.2017 00:00:00 12,4 9,3 0,0
18.10.2017 23:00:00 12,1 8,6 0,0
18.10.2017 22:00:00 12,2 8,1 0,0
18.10.2017 21:00:00 12,3 7,9 0,0
18.10.2017 20:00:00 12,3 8,3 0,0
18.10.2017 19:00:00 12,1 8,0 0,0
18.10.2017 18:00:00 12,3 8,1 0,0
18.10.2017 17:00:00 12,6 8,5 0,0
18.10.2017 16:00:00 12,8 8,3 0,0
18.10.2017 15:00:00 13,3 8,3 0,0
18.10.2017 14:00:00 13,6 7,9 0,0
18.10.2017 13:00:00 15,0 9,1 0,0
18.10.2017 12:00:00 12,7 9,5 0,0
18.10.2017 11:00:00 10,6 9,5 0,0
18.10.2017 10:00:00 9,3 9,1 0,0
18.10.2017 09:00:00 8,3 7,9 0,0
18.10.2017 08:00:00 8,4 8,0 0,0
18.10.2017 07:00:00 8,6 8,1 0,0
18.10.2017 06:00:00 8,3 7,8 0,0
18.10.2017 05:00:00 8,5 7,9 0,0
18.10.2017 04:00:00 9,6 9,0 0,0
18.10.2017 03:00:00 9,6 9,1 0,0
18.10.2017 02:00:00 9,3 8,7 0,0
18.10.2017 01:00:00 9,8 9,0 0,0
18.10.2017 00:00:00 9,9 9,1 0,0
17.10.2017 23:00:00 9,9 8,9 0,0
17.10.2017 22:00:00 10,5 9,1 0,0
17.10.2017 21:00:00 10,9 9,2 0,0
17.10.2017 20:00:00 10,7 8,5 0,0
17.10.2017 19:00:00 12,2 8,9 0,0
17.10.2017 18:00:00 12,3 8,9 0,0
17.10.2017 17:00:00 12,5 8,9 0,0
17.10.2017 16:00:00 11,9 9,2 0,0
17.10.2017 15:00:00 12,1 9,1 0,0
17.10.2017 14:00:00 13,0 8,5 0,0
17.10.2017 13:00:00 12,9 8,2 0,0
17.10.2017 12:00:00 12,6 8,2 0,0
17.10.2017 11:00:00 12,4 8,0 0,0
17.10.2017 10:00:00 11,9 8,2 0,0
17.10.2017 09:00:00 12,0 7,7 0,0
17.10.2017 08:00:00 12,1 7,8 0,0
17.10.2017 07:00:00 12,1 7,8 0,0
17.10.2017 06:00:00 11,9 8,9 0,0
17.10.2017 05:00:00 12,0 9,3 1,6
17.10.2017 04:00:00 11,4 10,0 1,0
17.10.2017 03:00:00 12,3 9,5 0,2
17.10.2017 02:00:00 13,6 9,4 0,0
17.10.2017 01:00:00 13,8 9,8 0,0
17.10.2017 00:00:00 13,7 9,9 0,0
16.10.2017 23:00:00 14,1 9,3 0,0
16.10.2017 22:00:00 13,7 9,7 0,0
16.10.2017 21:00:00 14,4 8,8 0,0
16.10.2017 20:00:00 14,9 8,7 0,0
16.10.2017 19:00:00 15,8 7,9 0,0
16.10.2017 18:00:00 16,6 8,3 0,0
16.10.2017 17:00:00 17,2 7,8 0,0
16.10.2017 16:00:00 18,3 10,6 0,0
16.10.2017 15:00:00 20,0 15,3 0,0
16.10.2017 14:00:00 18,3 15,2 0,0
16.10.2017 13:00:00 17,4 14,5 0,0
16.10.2017 12:00:00 16,1 13,9 0,0
16.10.2017 11:00:00 14,5 13,3 0,2
16.10.2017 10:00:00 13,9 12,7 0,4
16.10.2017 09:00:00 14,3 12,9 0,2
16.10.2017 08:00:00 14,5 12,7 0,0
16.10.2017 07:00:00 13,7 12,7 0,0
16.10.2017 06:00:00 12,4 11,5 0,0
16.10.2017 05:00:00 13,6 12,6 0,0
16.10.2017 04:00:00 13,4 12,6 0,0
16.10.2017 03:00:00 13,4 12,5 0,0
16.10.2017 02:00:00 13,5 12,5 0,0
16.10.2017 01:00:00 13,7 12,5 0,0
16.10.2017 00:00:00 14,0 12,4 0,0
15.10.2017 23:00:00 14,3 12,3 0,0
15.10.2017 22:00:00 15,1 12,2 0,0
15.10.2017 21:00:00 15,0 12,5 0,0
15.10.2017 20:00:00 14,9 12,7 0,0
15.10.2017 19:00:00 15,0 12,6 0,0
15.10.2017 18:00:00 14,9 13,0 0,0
15.10.2017 17:00:00 15,4 13,0 0,0
15.10.2017 16:00:00 15,6 12,7 0,0
15.10.2017 15:00:00 15,4 12,5 0,0
15.10.2017 14:00:00 15,4 12,7 0,0
15.10.2017 13:00:00 15,2 13,2 0,0
15.10.2017 12:00:00 15,1 13,5 0,0
15.10.2017 11:00:00 14,8 13,3 0,0
15.10.2017 10:00:00 15,2 13,1 0,0
15.10.2017 09:00:00 15,0 12,7 0,0
15.10.2017 08:00:00 14,4 12,3 0,0
15.10.2017 07:00:00 14,4 12,1 0,0
15.10.2017 06:00:00 14,3 12,1 0,0

tt = temperature
td = dewpoint
rr = precipitation

Next stations